sensor_id;sensor_type;location;lat;lon;timestamp;P1;durP1;ratioP1;P2;durP2;ratioP2
11703;SDS011;5908;51.354;7.458;2023-08-01T00:00:13;2.88;;;2.03;;
11703;SDS011;5908;51.354;7.458;2023-08-01T00:02:40;5.97;;;5.15;;
11703;SDS011;5908;51.354;7.458;2023-08-01T00:05:08;3.10;;;2.78;;
11703;SDS011;5908;51.354;7.458;2023-08-01T00:07:35;1.85;;;1.63;;
11703;SDS011;5908;51.354;7.458;2023-08-01T00:10:02;2.50;;;2.30;;
11703;SDS011;5908;51.354;7.458;2023-08-01T00:12:29;2.47;;;2.28;;
11703;SDS011;5908;51.354;7.458;2023-08-01T00:14:56;6.05;;;5.22;;
11703;SDS011;5908;51.354;7.458;2023-08-01T00:17:24;8.20;;;7.32;;
11703;SDS011;5908;51.354;7.458;2023-08-01T00:19:51;1.85;;;1.52;;
11703;SDS011;5908;51.354;7.458;2023-08-01T00:22:20;3.05;;;2.75;;
11703;SDS011;5908;51.354;7.458;2023-08-01T00:24:46;2.40;;;1.80;;
11703;SDS011;5908;51.354;7.458;2023-08-01T00:27:13;5.90;;;4.88;;
11703;SDS011;5908;51.354;7.458;2023-08-01T00:29:40;3.58;;;3.28;;
11703;SDS011;5908;51.354;7.458;2023-08-01T00:32:07;5.35;;;3.35;;
11703;SDS011;5908;51.354;7.458;2023-08-01T00:34:35;2.25;;;1.83;;
11703;SDS011;5908;51.354;7.458;2023-08-01T00:37:02;4.15;;;3.75;;
11703;SDS011;5908;51.354;7.458;2023-08-01T00:39:29;3.17;;;1.98;;
11703;SDS011;5908;51.354;7.458;2023-08-01T00:41:56;2.58;;;1.85;;
11703;SDS011;5908;51.354;7.458;2023-08-01T00:49:16;4.90;;;4.40;;
11703;SDS011;5908;51.354;7.458;2023-08-01T00:51:44;2.03;;;1.77;;
11703;SDS011;5908;51.354;7.458;2023-08-01T00:56:38;6.45;;;5.50;;
11703;SDS011;5908;51.354;7.458;2023-08-01T01:01:31;2.67;;;2.45;;
11703;SDS011;5908;51.354;7.458;2023-08-01T01:03:58;1.98;;;1.75;;
11703;SDS011;5908;51.354;7.458;2023-08-01T01:06:27;2.42;;;2.08;;
11703;SDS011;5908;51.354;7.458;2023-08-01T01:08:59;2.10;;;1.90;;
11703;SDS011;5908;51.354;7.458;2023-08-01T01:11:26;2.78;;;1.75;;
11703;SDS011;5908;51.354;7.458;2023-08-01T01:13:53;2.20;;;1.33;;
11703;SDS011;5908;51.354;7.458;2023-08-01T01:16:20;3.40;;;3.05;;
11703;SDS011;5908;51.354;7.458;2023-08-01T01:18:47;1.45;;;1.35;;
11703;SDS011;5908;51.354;7.458;2023-08-01T01:21:15;2.67;;;2.20;;
11703;SDS011;5908;51.354;7.458;2023-08-01T01:23:41;1.00;;;0.88;;
11703;SDS011;5908;51.354;7.458;2023-08-01T01:28:36;1.80;;;0.80;;
11703;SDS011;5908;51.354;7.458;2023-08-01T01:33:30;32.28;;;3.38;;
11703;SDS011;5908;51.354;7.458;2023-08-01T01:40:54;5.60;;;4.13;;
11703;SDS011;5908;51.354;7.458;2023-08-01T01:45:47;3.08;;;2.70;;
11703;SDS011;5908;51.354;7.458;2023-08-01T01:48:14;2.65;;;2.25;;
11703;SDS011;5908;51.354;7.458;2023-08-01T01:50:41;3.95;;;1.67;;
11703;SDS011;5908;51.354;7.458;2023-08-01T01:55:36;3.38;;;2.58;;
11703;SDS011;5908;51.354;7.458;2023-08-01T02:00:29;2.83;;;2.30;;
11703;SDS011;5908;51.354;7.458;2023-08-01T02:02:56;3.20;;;2.53;;
11703;SDS011;5908;51.354;7.458;2023-08-01T02:05:23;3.17;;;2.28;;
11703;SDS011;5908;51.354;7.458;2023-08-01T02:07:49;2.75;;;2.10;;
11703;SDS011;5908;51.354;7.458;2023-08-01T02:10:16;4.68;;;3.20;;
11703;SDS011;5908;51.354;7.458;2023-08-01T02:12:44;5.25;;;3.38;;
11703;SDS011;5908;51.354;7.458;2023-08-01T02:15:11;4.93;;;3.65;;
11703;SDS011;5908;51.354;7.458;2023-08-01T02:17:38;5.93;;;3.85;;
11703;SDS011;5908;51.354;7.458;2023-08-01T02:20:05;5.50;;;3.03;;
11703;SDS011;5908;51.354;7.458;2023-08-01T02:22:33;4.47;;;3.00;;
11703;SDS011;5908;51.354;7.458;2023-08-01T02:25:00;3.90;;;2.42;;
11703;SDS011;5908;51.354;7.458;2023-08-01T02:27:26;4.15;;;2.50;;
11703;SDS011;5908;51.354;7.458;2023-08-01T02:29:54;4.55;;;2.92;;
11703;SDS011;5908;51.354;7.458;2023-08-01T02:32:21;3.90;;;2.30;;
11703;SDS011;5908;51.354;7.458;2023-08-01T02:34:48;3.58;;;2.10;;
11703;SDS011;5908;51.354;7.458;2023-08-01T02:37:15;2.63;;;2.30;;
11703;SDS011;5908;51.354;7.458;2023-08-01T02:39:41;2.55;;;2.05;;
11703;SDS011;5908;51.354;7.458;2023-08-01T02:42:08;1.30;;;1.20;;
11703;SDS011;5908;51.354;7.458;2023-08-01T02:44:35;4.20;;;2.60;;
11703;SDS011;5908;51.354;7.458;2023-08-01T02:47:03;2.67;;;1.55;;
11703;SDS011;5908;51.354;7.458;2023-08-01T02:49:31;3.13;;;2.17;;
11703;SDS011;5908;51.354;7.458;2023-08-01T02:51:58;1.77;;;1.60;;
11703;SDS011;5908;51.354;7.458;2023-08-01T02:54:24;3.35;;;2.00;;
11703;SDS011;5908;51.354;7.458;2023-08-01T02:56:51;3.85;;;2.55;;
11703;SDS011;5908;51.354;7.458;2023-08-01T02:59:18;3.95;;;2.90;;
11703;SDS011;5908;51.354;7.458;2023-08-01T03:01:45;12.63;;;2.90;;
11703;SDS011;5908;51.354;7.458;2023-08-01T03:04:13;3.50;;;3.10;;
11703;SDS011;5908;51.354;7.458;2023-08-01T03:06:40;6.00;;;4.63;;
11703;SDS011;5908;51.354;7.458;2023-08-01T03:09:06;7.85;;;5.63;;
11703;SDS011;5908;51.354;7.458;2023-08-01T03:14:01;6.43;;;5.25;;
11703;SDS011;5908;51.354;7.458;2023-08-01T03:18:56;9.13;;;7.30;;
11703;SDS011;5908;51.354;7.458;2023-08-01T03:21:25;9.65;;;7.28;;
11703;SDS011;5908;51.354;7.458;2023-08-01T03:28:45;10.02;;;7.97;;
11703;SDS011;5908;51.354;7.458;2023-08-01T03:33:39;13.23;;;7.80;;
11703;SDS011;5908;51.354;7.458;2023-08-01T03:36:06;12.40;;;7.70;;
11703;SDS011;5908;51.354;7.458;2023-08-01T03:43:29;13.27;;;10.10;;
11703;SDS011;5908;51.354;7.458;2023-08-01T03:50:48;20.30;;;13.02;;
11703;SDS011;5908;51.354;7.458;2023-08-01T03:53:15;24.48;;;14.85;;
11703;SDS011;5908;51.354;7.458;2023-08-01T04:00:39;23.15;;;18.42;;
11703;SDS011;5908;51.354;7.458;2023-08-01T04:05:32;24.48;;;18.08;;
11703;SDS011;5908;51.354;7.458;2023-08-01T04:07:59;29.23;;;17.40;;
11703;SDS011;5908;51.354;7.458;2023-08-01T04:10:26;29.85;;;19.27;;
11703;SDS011;5908;51.354;7.458;2023-08-01T04:12:54;24.02;;;17.23;;
11703;SDS011;5908;51.354;7.458;2023-08-01T04:15:20;23.95;;;14.43;;
11703;SDS011;5908;51.354;7.458;2023-08-01T04:17:47;20.08;;;13.65;;
11703;SDS011;5908;51.354;7.458;2023-08-01T04:34:55;24.58;;;14.45;;
11703;SDS011;5908;51.354;7.458;2023-08-01T04:37:21;22.83;;;13.60;;
11703;SDS011;5908;51.354;7.458;2023-08-01T04:39:48;22.63;;;16.67;;
11703;SDS011;5908;51.354;7.458;2023-08-01T04:42:15;26.02;;;16.23;;
11703;SDS011;5908;51.354;7.458;2023-08-01T04:44:42;27.40;;;18.23;;
11703;SDS011;5908;51.354;7.458;2023-08-01T04:47:10;24.30;;;17.00;;
11703;SDS011;5908;51.354;7.458;2023-08-01T04:49:37;22.67;;;15.13;;
11703;SDS011;5908;51.354;7.458;2023-08-01T04:52:04;27.95;;;16.23;;
11703;SDS011;5908;51.354;7.458;2023-08-01T04:54:31;32.63;;;20.88;;
11703;SDS011;5908;51.354;7.458;2023-08-01T04:56:58;23.67;;;14.57;;
11703;SDS011;5908;51.354;7.458;2023-08-01T04:59:25;22.27;;;14.23;;
11703;SDS011;5908;51.354;7.458;2023-08-01T05:01:52;23.58;;;14.20;;
11703;SDS011;5908;51.354;7.458;2023-08-01T05:04:20;22.20;;;14.32;;
11703;SDS011;5908;51.354;7.458;2023-08-01T05:06:46;21.98;;;12.88;;
11703;SDS011;5908;51.354;7.458;2023-08-01T05:09:13;25.52;;;14.88;;
11703;SDS011;5908;51.354;7.458;2023-08-01T05:11:40;28.08;;;15.55;;
11703;SDS011;5908;51.354;7.458;2023-08-01T05:14:06;24.08;;;15.32;;
11703;SDS011;5908;51.354;7.458;2023-08-01T05:16:33;23.20;;;14.38;;
11703;SDS011;5908;51.354;7.458;2023-08-01T05:19:00;25.98;;;17.05;;
11703;SDS011;5908;51.354;7.458;2023-08-01T05:21:28;20.30;;;13.07;;
11703;SDS011;5908;51.354;7.458;2023-08-01T05:23:55;24.45;;;15.23;;
11703;SDS011;5908;51.354;7.458;2023-08-01T05:26:22;29.52;;;19.80;;
11703;SDS011;5908;51.354;7.458;2023-08-01T05:28:48;35.70;;;27.42;;
11703;SDS011;5908;51.354;7.458;2023-08-01T05:31:15;34.53;;;23.67;;
11703;SDS011;5908;51.354;7.458;2023-08-01T05:33:42;27.95;;;17.55;;
11703;SDS011;5908;51.354;7.458;2023-08-01T05:36:09;28.30;;;19.52;;
11703;SDS011;5908;51.354;7.458;2023-08-01T05:38:37;23.88;;;16.63;;
11703;SDS011;5908;51.354;7.458;2023-08-01T05:41:04;28.45;;;20.00;;
11703;SDS011;5908;51.354;7.458;2023-08-01T05:43:31;28.02;;;18.65;;
11703;SDS011;5908;51.354;7.458;2023-08-01T05:45:58;40.30;;;26.55;;
11703;SDS011;5908;51.354;7.458;2023-08-01T05:48:24;36.33;;;22.17;;
11703;SDS011;5908;51.354;7.458;2023-08-01T05:50:51;31.92;;;22.60;;
11703;SDS011;5908;51.354;7.458;2023-08-01T05:53:20;26.60;;;16.60;;
11703;SDS011;5908;51.354;7.458;2023-08-01T05:55:48;22.17;;;15.38;;
11703;SDS011;5908;51.354;7.458;2023-08-01T05:58:15;23.52;;;17.00;;
11703;SDS011;5908;51.354;7.458;2023-08-01T06:00:42;26.52;;;16.08;;
11703;SDS011;5908;51.354;7.458;2023-08-01T06:03:09;22.40;;;15.15;;
11703;SDS011;5908;51.354;7.458;2023-08-01T06:05:36;25.58;;;15.57;;
11703;SDS011;5908;51.354;7.458;2023-08-01T06:08:03;24.20;;;14.90;;
11703;SDS011;5908;51.354;7.458;2023-08-01T06:10:31;21.90;;;15.75;;
11703;SDS011;5908;51.354;7.458;2023-08-01T06:12:59;20.02;;;15.07;;
11703;SDS011;5908;51.354;7.458;2023-08-01T06:15:26;21.20;;;13.90;;
11703;SDS011;5908;51.354;7.458;2023-08-01T06:17:53;20.75;;;13.68;;
11703;SDS011;5908;51.354;7.458;2023-08-01T06:20:20;24.52;;;14.88;;
11703;SDS011;5908;51.354;7.458;2023-08-01T06:22:46;24.25;;;15.05;;
11703;SDS011;5908;51.354;7.458;2023-08-01T06:25:13;24.98;;;14.93;;
11703;SDS011;5908;51.354;7.458;2023-08-01T06:27:40;21.65;;;15.45;;
11703;SDS011;5908;51.354;7.458;2023-08-01T06:30:08;22.23;;;16.17;;
11703;SDS011;5908;51.354;7.458;2023-08-01T06:32:36;20.73;;;14.43;;
11703;SDS011;5908;51.354;7.458;2023-08-01T06:35:03;19.92;;;14.70;;
11703;SDS011;5908;51.354;7.458;2023-08-01T06:37:30;19.80;;;13.05;;
11703;SDS011;5908;51.354;7.458;2023-08-01T06:39:57;22.73;;;13.60;;
11703;SDS011;5908;51.354;7.458;2023-08-01T06:42:24;22.77;;;14.85;;
11703;SDS011;5908;51.354;7.458;2023-08-01T06:44:51;19.95;;;13.15;;
11703;SDS011;5908;51.354;7.458;2023-08-01T06:47:19;18.00;;;12.70;;
11703;SDS011;5908;51.354;7.458;2023-08-01T06:49:46;20.20;;;12.95;;
11703;SDS011;5908;51.354;7.458;2023-08-01T06:52:13;20.58;;;13.63;;
11703;SDS011;5908;51.354;7.458;2023-08-01T06:54:39;19.48;;;12.20;;
11703;SDS011;5908;51.354;7.458;2023-08-01T06:57:06;17.13;;;11.68;;
11703;SDS011;5908;51.354;7.458;2023-08-01T06:59:33;19.98;;;11.63;;
11703;SDS011;5908;51.354;7.458;2023-08-01T07:02:00;18.88;;;12.88;;
11703;SDS011;5908;51.354;7.458;2023-08-01T07:04:28;17.15;;;12.27;;
11703;SDS011;5908;51.354;7.458;2023-08-01T07:06:55;16.80;;;11.02;;
11703;SDS011;5908;51.354;7.458;2023-08-01T07:09:22;16.98;;;11.50;;
11703;SDS011;5908;51.354;7.458;2023-08-01T07:11:48;14.20;;;10.50;;
11703;SDS011;5908;51.354;7.458;2023-08-01T07:14:15;14.02;;;10.77;;
11703;SDS011;5908;51.354;7.458;2023-08-01T07:16:42;14.73;;;10.02;;
11703;SDS011;5908;51.354;7.458;2023-08-01T07:19:09;17.13;;;10.20;;
11703;SDS011;5908;51.354;7.458;2023-08-01T07:21:37;14.10;;;9.93;;
11703;SDS011;5908;51.354;7.458;2023-08-01T07:24:04;12.48;;;9.43;;
11703;SDS011;5908;51.354;7.458;2023-08-01T07:26:31;15.55;;;9.38;;
11703;SDS011;5908;51.354;7.458;2023-08-01T07:28:58;11.18;;;8.75;;
11703;SDS011;5908;51.354;7.458;2023-08-01T07:31:24;16.30;;;8.15;;
11703;SDS011;5908;51.354;7.458;2023-08-01T07:33:51;13.00;;;8.55;;
11703;SDS011;5908;51.354;7.458;2023-08-01T07:36:18;12.23;;;7.88;;
11703;SDS011;5908;51.354;7.458;2023-08-01T07:38:48;14.10;;;8.32;;
11703;SDS011;5908;51.354;7.458;2023-08-01T07:41:14;11.93;;;7.93;;
11703;SDS011;5908;51.354;7.458;2023-08-01T07:43:41;11.32;;;7.63;;
11703;SDS011;5908;51.354;7.458;2023-08-01T07:46:08;12.32;;;7.93;;
11703;SDS011;5908;51.354;7.458;2023-08-01T07:48:36;10.68;;;7.32;;
11703;SDS011;5908;51.354;7.458;2023-08-01T07:51:04;9.88;;;7.30;;
11703;SDS011;5908;51.354;7.458;2023-08-01T07:53:32;8.65;;;7.00;;
11703;SDS011;5908;51.354;7.458;2023-08-01T07:56:00;12.63;;;7.82;;
11703;SDS011;5908;51.354;7.458;2023-08-01T07:58:27;12.55;;;7.10;;
11703;SDS011;5908;51.354;7.458;2023-08-01T08:00:54;10.15;;;6.30;;
11703;SDS011;5908;51.354;7.458;2023-08-01T08:03:21;8.82;;;6.78;;
11703;SDS011;5908;51.354;7.458;2023-08-01T08:05:49;13.45;;;7.47;;
11703;SDS011;5908;51.354;7.458;2023-08-01T08:08:16;12.18;;;7.07;;
11703;SDS011;5908;51.354;7.458;2023-08-01T08:10:43;9.73;;;6.25;;
11703;SDS011;5908;51.354;7.458;2023-08-01T08:13:11;9.32;;;6.57;;
11703;SDS011;5908;51.354;7.458;2023-08-01T08:15:37;9.38;;;6.38;;
11703;SDS011;5908;51.354;7.458;2023-08-01T08:18:04;7.60;;;5.70;;
11703;SDS011;5908;51.354;7.458;2023-08-01T08:20:34;9.50;;;6.13;;
11703;SDS011;5908;51.354;7.458;2023-08-01T08:23:07;13.13;;;7.50;;
11703;SDS011;5908;51.354;7.458;2023-08-01T08:25:34;8.90;;;6.00;;
11703;SDS011;5908;51.354;7.458;2023-08-01T08:28:01;11.48;;;6.85;;
11703;SDS011;5908;51.354;7.458;2023-08-01T08:30:29;10.27;;;6.13;;
11703;SDS011;5908;51.354;7.458;2023-08-01T08:32:56;13.63;;;9.07;;
11703;SDS011;5908;51.354;7.458;2023-08-01T08:35:23;23.05;;;16.48;;
11703;SDS011;5908;51.354;7.458;2023-08-01T08:37:50;13.80;;;10.48;;
11703;SDS011;5908;51.354;7.458;2023-08-01T08:40:17;8.98;;;7.38;;
11703;SDS011;5908;51.354;7.458;2023-08-01T08:42:44;10.40;;;6.50;;
11703;SDS011;5908;51.354;7.458;2023-08-01T08:45:12;11.65;;;7.30;;
11703;SDS011;5908;51.354;7.458;2023-08-01T08:47:45;11.88;;;7.10;;
11703;SDS011;5908;51.354;7.458;2023-08-01T08:50:19;9.00;;;5.68;;
11703;SDS011;5908;51.354;7.458;2023-08-01T08:52:46;8.15;;;5.60;;
11703;SDS011;5908;51.354;7.458;2023-08-01T08:55:13;15.45;;;11.55;;
11703;SDS011;5908;51.354;7.458;2023-08-01T08:57:40;8.82;;;6.10;;
11703;SDS011;5908;51.354;7.458;2023-08-01T09:00:10;9.05;;;6.75;;
11703;SDS011;5908;51.354;7.458;2023-08-01T09:02:37;19.77;;;15.18;;
11703;SDS011;5908;51.354;7.458;2023-08-01T09:05:05;11.60;;;8.30;;
11703;SDS011;5908;51.354;7.458;2023-08-01T09:07:33;13.52;;;9.57;;
11703;SDS011;5908;51.354;7.458;2023-08-01T09:10:02;13.68;;;9.20;;
11703;SDS011;5908;51.354;7.458;2023-08-01T09:12:32;13.38;;;8.27;;
11703;SDS011;5908;51.354;7.458;2023-08-01T09:15:00;19.40;;;15.75;;
11703;SDS011;5908;51.354;7.458;2023-08-01T09:17:27;12.02;;;7.72;;
11703;SDS011;5908;51.354;7.458;2023-08-01T09:24:52;8.93;;;5.85;;
11703;SDS011;5908;51.354;7.458;2023-08-01T09:27:20;9.43;;;6.50;;
11703;SDS011;5908;51.354;7.458;2023-08-01T09:34:41;6.60;;;5.07;;
11703;SDS011;5908;51.354;7.458;2023-08-01T09:37:08;7.25;;;5.40;;
11703;SDS011;5908;51.354;7.458;2023-08-01T09:39:36;7.85;;;5.60;;
11703;SDS011;5908;51.354;7.458;2023-08-01T09:42:03;13.98;;;9.60;;
11703;SDS011;5908;51.354;7.458;2023-08-01T09:46:57;10.57;;;7.85;;
11703;SDS011;5908;51.354;7.458;2023-08-01T09:49:24;8.65;;;6.07;;
11703;SDS011;5908;51.354;7.458;2023-08-01T09:54:20;18.40;;;13.35;;
11703;SDS011;5908;51.354;7.458;2023-08-01T09:56:49;13.05;;;8.50;;
11703;SDS011;5908;51.354;7.458;2023-08-01T09:59:18;8.57;;;5.72;;
11703;SDS011;5908;51.354;7.458;2023-08-01T10:01:46;8.70;;;5.22;;
11703;SDS011;5908;51.354;7.458;2023-08-01T10:04:16;8.50;;;5.70;;
11703;SDS011;5908;51.354;7.458;2023-08-01T10:06:46;6.03;;;4.30;;
11703;SDS011;5908;51.354;7.458;2023-08-01T10:09:20;9.32;;;4.97;;
11703;SDS011;5908;51.354;7.458;2023-08-01T10:11:49;8.05;;;5.32;;
11703;SDS011;5908;51.354;7.458;2023-08-01T10:14:17;8.52;;;4.82;;
11703;SDS011;5908;51.354;7.458;2023-08-01T10:16:45;6.93;;;4.70;;
11703;SDS011;5908;51.354;7.458;2023-08-01T10:19:13;7.03;;;4.22;;
11703;SDS011;5908;51.354;7.458;2023-08-01T10:21:40;5.25;;;3.70;;
11703;SDS011;5908;51.354;7.458;2023-08-01T10:24:08;5.35;;;3.72;;
11703;SDS011;5908;51.354;7.458;2023-08-01T10:26:35;19.52;;;12.85;;
11703;SDS011;5908;51.354;7.458;2023-08-01T10:29:03;15.90;;;11.27;;
11703;SDS011;5908;51.354;7.458;2023-08-01T10:31:30;14.13;;;10.90;;
11703;SDS011;5908;51.354;7.458;2023-08-01T10:34:04;11.25;;;8.63;;
11703;SDS011;5908;51.354;7.458;2023-08-01T10:36:32;12.82;;;8.15;;
11703;SDS011;5908;51.354;7.458;2023-08-01T10:39:00;8.05;;;5.45;;
11703;SDS011;5908;51.354;7.458;2023-08-01T10:41:27;8.43;;;5.05;;
11703;SDS011;5908;51.354;7.458;2023-08-01T10:44:09;8.35;;;5.30;;
11703;SDS011;5908;51.354;7.458;2023-08-01T10:46:47;7.32;;;5.35;;
11703;SDS011;5908;51.354;7.458;2023-08-01T10:49:15;9.77;;;7.10;;
11703;SDS011;5908;51.354;7.458;2023-08-01T10:51:42;21.33;;;16.02;;
11703;SDS011;5908;51.354;7.458;2023-08-01T10:54:19;6.18;;;5.55;;
11703;SDS011;5908;51.354;7.458;2023-08-01T10:56:47;7.68;;;5.88;;
11703;SDS011;5908;51.354;7.458;2023-08-01T10:59:16;8.98;;;6.88;;
11703;SDS011;5908;51.354;7.458;2023-08-01T11:01:44;17.15;;;14.32;;
11703;SDS011;5908;51.354;7.458;2023-08-01T11:04:15;12.95;;;10.65;;
11703;SDS011;5908;51.354;7.458;2023-08-01T11:06:43;10.25;;;8.27;;
11703;SDS011;5908;51.354;7.458;2023-08-01T11:09:15;24.98;;;20.90;;
11703;SDS011;5908;51.354;7.458;2023-08-01T11:11:43;11.30;;;8.20;;
11703;SDS011;5908;51.354;7.458;2023-08-01T11:14:11;13.88;;;9.57;;
11703;SDS011;5908;51.354;7.458;2023-08-01T11:16:40;12.98;;;10.82;;
11703;SDS011;5908;51.354;7.458;2023-08-01T11:19:17;12.18;;;7.97;;
11703;SDS011;5908;51.354;7.458;2023-08-01T11:21:45;8.93;;;6.80;;
11703;SDS011;5908;51.354;7.458;2023-08-01T11:48:44;6.25;;;5.28;;
11703;SDS011;5908;51.354;7.458;2023-08-01T11:51:13;12.38;;;10.75;;
11703;SDS011;5908;51.354;7.458;2023-08-01T11:53:40;7.00;;;5.20;;
11703;SDS011;5908;51.354;7.458;2023-08-01T11:56:06;5.85;;;4.38;;
11703;SDS011;5908;51.354;7.458;2023-08-01T11:58:34;9.85;;;4.80;;
11703;SDS011;5908;51.354;7.458;2023-08-01T12:01:03;10.10;;;7.60;;
11703;SDS011;5908;51.354;7.458;2023-08-01T12:03:30;8.27;;;5.10;;
11703;SDS011;5908;51.354;7.458;2023-08-01T12:06:04;7.55;;;5.03;;
11703;SDS011;5908;51.354;7.458;2023-08-01T12:20:49;5.25;;;4.20;;
11703;SDS011;5908;51.354;7.458;2023-08-01T12:23:15;7.43;;;4.57;;
11703;SDS011;5908;51.354;7.458;2023-08-01T12:25:43;5.22;;;4.13;;
11703;SDS011;5908;51.354;7.458;2023-08-01T12:28:11;6.32;;;4.60;;
11703;SDS011;5908;51.354;7.458;2023-08-01T12:30:39;6.57;;;3.70;;
11703;SDS011;5908;51.354;7.458;2023-08-01T12:33:06;6.63;;;4.68;;
11703;SDS011;5908;51.354;7.458;2023-08-01T12:35:33;6.20;;;4.53;;
11703;SDS011;5908;51.354;7.458;2023-08-01T12:37:59;5.60;;;4.28;;
11703;SDS011;5908;51.354;7.458;2023-08-01T12:40:26;6.05;;;4.05;;
11703;SDS011;5908;51.354;7.458;2023-08-01T12:42:54;4.28;;;3.10;;
11703;SDS011;5908;51.354;7.458;2023-08-01T12:45:21;4.47;;;2.58;;
11703;SDS011;5908;51.354;7.458;2023-08-01T12:47:48;6.70;;;3.28;;
11703;SDS011;5908;51.354;7.458;2023-08-01T12:50:15;4.97;;;2.60;;
11703;SDS011;5908;51.354;7.458;2023-08-01T12:52:42;4.95;;;3.88;;
11703;SDS011;5908;51.354;7.458;2023-08-01T12:55:09;3.78;;;3.03;;
11703;SDS011;5908;51.354;7.458;2023-08-01T12:57:35;4.53;;;3.00;;
11703;SDS011;5908;51.354;7.458;2023-08-01T13:00:04;5.22;;;2.70;;
11703;SDS011;5908;51.354;7.458;2023-08-01T13:02:35;4.78;;;3.10;;
11703;SDS011;5908;51.354;7.458;2023-08-01T13:05:01;4.15;;;2.85;;
11703;SDS011;5908;51.354;7.458;2023-08-01T13:07:28;5.22;;;2.92;;
11703;SDS011;5908;51.354;7.458;2023-08-01T13:09:57;4.40;;;3.55;;
11703;SDS011;5908;51.354;7.458;2023-08-01T13:12:24;4.00;;;2.25;;
11703;SDS011;5908;51.354;7.458;2023-08-01T13:14:50;4.32;;;3.20;;
11703;SDS011;5908;51.354;7.458;2023-08-01T13:17:18;10.30;;;7.63;;
11703;SDS011;5908;51.354;7.458;2023-08-01T13:19:45;9.45;;;7.28;;
11703;SDS011;5908;51.354;7.458;2023-08-01T13:22:12;9.00;;;4.40;;
11703;SDS011;5908;51.354;7.458;2023-08-01T13:24:38;6.13;;;2.65;;
11703;SDS011;5908;51.354;7.458;2023-08-01T13:29:33;6.78;;;3.92;;
11703;SDS011;5908;51.354;7.458;2023-08-01T13:34:28;8.38;;;5.30;;
11703;SDS011;5908;51.354;7.458;2023-08-01T13:44:14;5.35;;;3.40;;
11703;SDS011;5908;51.354;7.458;2023-08-01T13:46:41;5.20;;;2.88;;
11703;SDS011;5908;51.354;7.458;2023-08-01T13:49:08;9.73;;;5.00;;
11703;SDS011;5908;51.354;7.458;2023-08-01T13:51:36;7.72;;;4.00;;
11703;SDS011;5908;51.354;7.458;2023-08-01T13:54:03;5.28;;;3.47;;
11703;SDS011;5908;51.354;7.458;2023-08-01T13:56:29;6.53;;;4.53;;
11703;SDS011;5908;51.354;7.458;2023-08-01T13:58:56;5.85;;;3.90;;
11703;SDS011;5908;51.354;7.458;2023-08-01T14:01:23;4.97;;;2.97;;
11703;SDS011;5908;51.354;7.458;2023-08-01T14:03:50;4.72;;;2.80;;
11703;SDS011;5908;51.354;7.458;2023-08-01T14:06:16;4.32;;;2.97;;
11703;SDS011;5908;51.354;7.458;2023-08-01T14:08:44;5.63;;;3.78;;
11703;SDS011;5908;51.354;7.458;2023-08-01T14:11:11;3.50;;;2.75;;
11703;SDS011;5908;51.354;7.458;2023-08-01T14:13:38;5.65;;;3.00;;
11703;SDS011;5908;51.354;7.458;2023-08-01T14:18:31;8.18;;;4.63;;
11703;SDS011;5908;51.354;7.458;2023-08-01T14:20:58;10.10;;;5.32;;
11703;SDS011;5908;51.354;7.458;2023-08-01T14:23:25;7.78;;;4.57;;
11703;SDS011;5908;51.354;7.458;2023-08-01T14:25:54;14.75;;;5.43;;
11703;SDS011;5908;51.354;7.458;2023-08-01T14:28:23;11.48;;;8.40;;
11703;SDS011;5908;51.354;7.458;2023-08-01T14:30:50;12.50;;;6.88;;
11703;SDS011;5908;51.354;7.458;2023-08-01T14:33:16;15.98;;;10.05;;
11703;SDS011;5908;51.354;7.458;2023-08-01T14:35:46;28.92;;;20.40;;
11703;SDS011;5908;51.354;7.458;2023-08-01T14:38:12;17.13;;;11.30;;
11703;SDS011;5908;51.354;7.458;2023-08-01T14:40:39;11.20;;;5.90;;
11703;SDS011;5908;51.354;7.458;2023-08-01T14:43:07;18.27;;;11.32;;
11703;SDS011;5908;51.354;7.458;2023-08-01T14:45:36;32.17;;;21.42;;
11703;SDS011;5908;51.354;7.458;2023-08-01T14:48:04;25.73;;;17.42;;
11703;SDS011;5908;51.354;7.458;2023-08-01T14:50:31;11.02;;;8.60;;
11703;SDS011;5908;51.354;7.458;2023-08-01T14:52:58;18.00;;;13.00;;
11703;SDS011;5908;51.354;7.458;2023-08-01T14:55:26;21.35;;;15.75;;
11703;SDS011;5908;51.354;7.458;2023-08-01T14:57:53;24.13;;;17.10;;
11703;SDS011;5908;51.354;7.458;2023-08-01T15:00:21;15.20;;;10.32;;
11703;SDS011;5908;51.354;7.458;2023-08-01T15:02:48;20.02;;;13.88;;
11703;SDS011;5908;51.354;7.458;2023-08-01T15:05:15;13.95;;;9.77;;
11703;SDS011;5908;51.354;7.458;2023-08-01T15:07:41;10.50;;;4.82;;
11703;SDS011;5908;51.354;7.458;2023-08-01T15:10:08;9.50;;;4.93;;
11703;SDS011;5908;51.354;7.458;2023-08-01T15:12:36;7.43;;;4.55;;
11703;SDS011;5908;51.354;7.458;2023-08-01T15:15:03;8.57;;;4.75;;
11703;SDS011;5908;51.354;7.458;2023-08-01T15:17:32;8.98;;;6.25;;
11703;SDS011;5908;51.354;7.458;2023-08-01T15:22:26;3.70;;;2.70;;
11703;SDS011;5908;51.354;7.458;2023-08-01T15:29:45;5.68;;;3.20;;
11703;SDS011;5908;51.354;7.458;2023-08-01T15:32:12;5.85;;;2.72;;
11703;SDS011;5908;51.354;7.458;2023-08-01T15:34:40;4.72;;;2.95;;
11703;SDS011;5908;51.354;7.458;2023-08-01T15:37:07;7.78;;;4.55;;
11703;SDS011;5908;51.354;7.458;2023-08-01T15:39:34;5.38;;;2.50;;
11703;SDS011;5908;51.354;7.458;2023-08-01T15:42:01;5.30;;;2.50;;
11703;SDS011;5908;51.354;7.458;2023-08-01T15:44:28;4.47;;;2.42;;
11703;SDS011;5908;51.354;7.458;2023-08-01T15:54:16;6.60;;;3.53;;
11703;SDS011;5908;51.354;7.458;2023-08-01T15:56:43;6.18;;;2.85;;
11703;SDS011;5908;51.354;7.458;2023-08-01T15:59:09;5.22;;;2.85;;
11703;SDS011;5908;51.354;7.458;2023-08-01T16:01:36;4.93;;;2.65;;
11703;SDS011;5908;51.354;7.458;2023-08-01T16:04:03;6.10;;;3.38;;
11703;SDS011;5908;51.354;7.458;2023-08-01T16:06:30;5.47;;;2.58;;
11703;SDS011;5908;51.354;7.458;2023-08-01T16:08:58;7.43;;;3.10;;
11703;SDS011;5908;51.354;7.458;2023-08-01T16:11:24;6.70;;;2.85;;
11703;SDS011;5908;51.354;7.458;2023-08-01T16:13:51;4.75;;;3.00;;
11703;SDS011;5908;51.354;7.458;2023-08-01T16:16:18;5.90;;;3.20;;
11703;SDS011;5908;51.354;7.458;2023-08-01T16:18:44;6.07;;;2.33;;
11703;SDS011;5908;51.354;7.458;2023-08-01T16:21:11;5.78;;;2.63;;
11703;SDS011;5908;51.354;7.458;2023-08-01T16:28:33;5.88;;;3.28;;
11703;SDS011;5908;51.354;7.458;2023-08-01T16:31:00;8.02;;;4.72;;
11703;SDS011;5908;51.354;7.458;2023-08-01T16:33:29;5.63;;;3.15;;
11703;SDS011;5908;51.354;7.458;2023-08-01T16:35:56;4.78;;;2.95;;
11703;SDS011;5908;51.354;7.458;2023-08-01T16:38:23;6.43;;;3.35;;
11703;SDS011;5908;51.354;7.458;2023-08-01T16:40:50;7.03;;;3.92;;
11703;SDS011;5908;51.354;7.458;2023-08-01T16:43:18;6.78;;;3.50;;
11703;SDS011;5908;51.354;7.458;2023-08-01T16:45:44;9.40;;;4.80;;
11703;SDS011;5908;51.354;7.458;2023-08-01T16:48:11;7.03;;;4.13;;
11703;SDS011;5908;51.354;7.458;2023-08-01T16:50:38;6.70;;;3.92;;
11703;SDS011;5908;51.354;7.458;2023-08-01T16:53:04;6.10;;;3.92;;
11703;SDS011;5908;51.354;7.458;2023-08-01T16:55:31;5.05;;;2.92;;
11703;SDS011;5908;51.354;7.458;2023-08-01T16:57:58;5.90;;;3.15;;
11703;SDS011;5908;51.354;7.458;2023-08-01T17:00:26;18.02;;;12.85;;
11703;SDS011;5908;51.354;7.458;2023-08-01T17:07:47;4.93;;;2.67;;
11703;SDS011;5908;51.354;7.458;2023-08-01T17:10:13;3.97;;;2.42;;
11703;SDS011;5908;51.354;7.458;2023-08-01T17:12:41;7.50;;;5.32;;
11703;SDS011;5908;51.354;7.458;2023-08-01T17:15:09;6.47;;;3.97;;
11703;SDS011;5908;51.354;7.458;2023-08-01T17:17:37;4.75;;;2.83;;
11703;SDS011;5908;51.354;7.458;2023-08-01T17:20:04;5.72;;;2.67;;
11703;SDS011;5908;51.354;7.458;2023-08-01T17:27:26;5.70;;;4.45;;
11703;SDS011;5908;51.354;7.458;2023-08-01T17:29:53;5.05;;;3.45;;
11703;SDS011;5908;51.354;7.458;2023-08-01T17:32:19;4.63;;;2.50;;
11703;SDS011;5908;51.354;7.458;2023-08-01T17:34:47;12.13;;;5.75;;
11703;SDS011;5908;51.354;7.458;2023-08-01T17:37:14;6.55;;;3.47;;